Haifa, Israel
Current Conditions -  °F | °C
As of 3:50 PM on Saturday 25 Oct 2014 (Local Time) from LLHA Reporting Station
Clear Clear  
Wind Chill: 79°   Ceiling: Unl
Heat Index: 80°   Visibility: 6mi
Dew Point: 61°   Wind: 7mph
Humidity: 54%   Direction: 290°WNW
Pressure: 29.94"   Gusts: NA
Location:  32.82°N, 34.99°E
Report Text: LLHA 251350Z 29006KT 250V340 CAVOK 26/16 Q1014
Loading
Personal Weather Stations






























Interactive Weather Map New forecast layout! Learn more

10-Day Weather Forecast

Advertisements
Track Severe Weather on mobile